sensor_id;sensor_type;location;lat;lon;timestamp;pressure;altitude;pressure_sealevel;temperature;humidity
60817;BME280;51921;51.518;-3.188;2023-07-13T00:01:22;101100.76;;;12.80;100.00
60817;BME280;51921;51.518;-3.188;2023-07-13T00:03:47;101099.72;;;12.02;100.00
60817;BME280;51921;51.518;-3.188;2023-07-13T00:06:13;101095.41;;;12.16;100.00
60817;BME280;51921;51.518;-3.188;2023-07-13T00:08:38;101097.75;;;12.93;100.00
60817;BME280;51921;51.518;-3.188;2023-07-13T00:11:04;101100.54;;;12.53;100.00
60817;BME280;51921;51.518;-3.188;2023-07-13T00:13:30;101104.79;;;11.94;100.00
60817;BME280;51921;51.518;-3.188;2023-07-13T00:15:56;101101.85;;;12.21;100.00
60817;BME280;51921;51.518;-3.188;2023-07-13T00:18:20;101105.46;;;13.12;100.00
60817;BME280;51921;51.518;-3.188;2023-07-13T00:20:45;101097.75;;;13.03;100.00
60817;BME280;51921;51.518;-3.188;2023-07-13T00:23:11;101096.69;;;12.85;100.00
60817;BME280;51921;51.518;-3.188;2023-07-13T00:25:36;101096.14;;;12.30;100.00
60817;BME280;51921;51.518;-3.188;2023-07-13T00:28:02;101093.50;;;12.71;100.00
60817;BME280;51921;51.518;-3.188;2023-07-13T00:30:27;101085.38;;;12.71;100.00
60817;BME280;51921;51.518;-3.188;2023-07-13T00:32:53;101088.27;;;12.02;100.00
60817;BME280;51921;51.518;-3.188;2023-07-13T00:35:18;101086.37;;;12.79;100.00
60817;BME280;51921;51.518;-3.188;2023-07-13T00:37:43;101082.55;;;13.14;100.00
60817;BME280;51921;51.518;-3.188;2023-07-13T00:40:11;101086.41;;;12.93;100.00
60817;BME280;51921;51.518;-3.188;2023-07-13T00:42:34;101090.93;;;12.91;100.00
60817;BME280;51921;51.518;-3.188;2023-07-13T00:45:02;101087.89;;;12.87;100.00
60817;BME280;51921;51.518;-3.188;2023-07-13T00:47:25;101087.11;;;13.23;100.00
60817;BME280;51921;51.518;-3.188;2023-07-13T00:49:51;101091.44;;;13.49;100.00
60817;BME280;51921;51.518;-3.188;2023-07-13T00:52:16;101091.95;;;12.69;100.00
60817;BME280;51921;51.518;-3.188;2023-07-13T00:54:45;101096.82;;;13.26;100.00
60817;BME280;51921;51.518;-3.188;2023-07-13T00:57:11;101092.69;;;12.85;100.00
60817;BME280;51921;51.518;-3.188;2023-07-13T00:59:33;101094.18;;;12.60;100.00
60817;BME280;51921;51.518;-3.188;2023-07-13T01:01:57;101096.65;;;12.88;100.00
60817;BME280;51921;51.518;-3.188;2023-07-13T01:04:24;101095.37;;;12.88;100.00
60817;BME280;51921;51.518;-3.188;2023-07-13T01:06:48;101098.48;;;12.53;100.00
60817;BME280;51921;51.518;-3.188;2023-07-13T01:09:14;101094.46;;;13.03;100.00
60817;BME280;51921;51.518;-3.188;2023-07-13T01:11:40;101093.61;;;13.20;100.00
60817;BME280;51921;51.518;-3.188;2023-07-13T01:14:05;101093.27;;;12.76;100.00
60817;BME280;51921;51.518;-3.188;2023-07-13T01:16:32;101090.85;;;13.86;100.00
60817;BME280;51921;51.518;-3.188;2023-07-13T01:18:56;101092.19;;;13.48;100.00
60817;BME280;51921;51.518;-3.188;2023-07-13T01:21:21;101091.48;;;12.92;100.00
60817;BME280;51921;51.518;-3.188;2023-07-13T01:23:46;101088.34;;;12.79;100.00
60817;BME280;51921;51.518;-3.188;2023-07-13T01:26:12;101090.39;;;13.51;100.00
60817;BME280;51921;51.518;-3.188;2023-07-13T01:28:37;101090.37;;;13.35;100.00
60817;BME280;51921;51.518;-3.188;2023-07-13T01:31:03;101086.82;;;12.91;100.00
60817;BME280;51921;51.518;-3.188;2023-07-13T01:33:28;101084.94;;;13.05;100.00
60817;BME280;51921;51.518;-3.188;2023-07-13T01:35:53;101087.89;;;13.05;100.00
60817;BME280;51921;51.518;-3.188;2023-07-13T01:38:20;101087.25;;;12.72;100.00
60817;BME280;51921;51.518;-3.188;2023-07-13T01:40:44;101086.83;;;12.54;100.00
60817;BME280;51921;51.518;-3.188;2023-07-13T01:43:09;101089.74;;;12.59;100.00
60817;BME280;51921;51.518;-3.188;2023-07-13T01:45:34;101085.70;;;12.58;100.00
60817;BME280;51921;51.518;-3.188;2023-07-13T01:48:00;101088.16;;;12.75;100.00
60817;BME280;51921;51.518;-3.188;2023-07-13T01:50:25;101082.53;;;13.01;100.00
60817;BME280;51921;51.518;-3.188;2023-07-13T01:52:50;101082.20;;;12.58;100.00
60817;BME280;51921;51.518;-3.188;2023-07-13T01:55:16;101085.66;;;12.04;100.00
60817;BME280;51921;51.518;-3.188;2023-07-13T01:57:41;101082.62;;;13.01;100.00
60817;BME280;51921;51.518;-3.188;2023-07-13T02:00:09;101084.88;;;12.82;100.00
60817;BME280;51921;51.518;-3.188;2023-07-13T02:02:32;101088.95;;;12.57;100.00
60817;BME280;51921;51.518;-3.188;2023-07-13T02:04:57;101085.95;;;12.96;100.00
60817;BME280;51921;51.518;-3.188;2023-07-13T02:07:23;101084.92;;;12.76;100.00
60817;BME280;51921;51.518;-3.188;2023-07-13T02:09:48;101083.31;;;12.39;100.00
60817;BME280;51921;51.518;-3.188;2023-07-13T02:12:14;101084.02;;;13.64;100.00
60817;BME280;51921;51.518;-3.188;2023-07-13T02:14:39;101077.84;;;12.73;100.00
60817;BME280;51921;51.518;-3.188;2023-07-13T02:17:05;101076.22;;;13.40;100.00
60817;BME280;51921;51.518;-3.188;2023-07-13T02:19:30;101078.92;;;13.26;100.00
60817;BME280;51921;51.518;-3.188;2023-07-13T02:21:55;101074.13;;;12.79;100.00
60817;BME280;51921;51.518;-3.188;2023-07-13T02:24:21;101072.49;;;13.09;100.00
60817;BME280;51921;51.518;-3.188;2023-07-13T02:26:46;101070.83;;;13.51;100.00
60817;BME280;51921;51.518;-3.188;2023-07-13T02:29:11;101065.11;;;12.57;100.00
60817;BME280;51921;51.518;-3.188;2023-07-13T02:31:37;101062.66;;;12.81;100.00
60817;BME280;51921;51.518;-3.188;2023-07-13T02:34:02;101061.51;;;13.00;100.00
60817;BME280;51921;51.518;-3.188;2023-07-13T02:36:28;101056.46;;;13.48;100.00
60817;BME280;51921;51.518;-3.188;2023-07-13T02:38:53;101055.25;;;13.19;100.00
60817;BME280;51921;51.518;-3.188;2023-07-13T02:41:18;101049.84;;;13.01;100.00
60817;BME280;51921;51.518;-3.188;2023-07-13T02:43:44;101047.30;;;12.51;100.00
60817;BME280;51921;51.518;-3.188;2023-07-13T02:46:09;101052.98;;;12.45;100.00
60817;BME280;51921;51.518;-3.188;2023-07-13T02:48:35;101050.20;;;12.81;100.00
60817;BME280;51921;51.518;-3.188;2023-07-13T02:51:00;101051.74;;;11.94;100.00
60817;BME280;51921;51.518;-3.188;2023-07-13T02:53:26;101049.79;;;12.76;100.00
60817;BME280;51921;51.518;-3.188;2023-07-13T02:55:51;101050.28;;;12.74;100.00
60817;BME280;51921;51.518;-3.188;2023-07-13T02:58:16;101055.01;;;12.91;100.00
60817;BME280;51921;51.518;-3.188;2023-07-13T03:00:41;101054.24;;;13.18;100.00
60817;BME280;51921;51.518;-3.188;2023-07-13T03:03:07;101056.11;;;13.26;100.00
60817;BME280;51921;51.518;-3.188;2023-07-13T03:05:32;101055.60;;;13.18;100.00
60817;BME280;51921;51.518;-3.188;2023-07-13T03:07:57;101057.10;;;12.42;100.00
60817;BME280;51921;51.518;-3.188;2023-07-13T03:10:23;101059.75;;;13.63;100.00
60817;BME280;51921;51.518;-3.188;2023-07-13T03:12:48;101058.57;;;13.05;100.00
60817;BME280;51921;51.518;-3.188;2023-07-13T03:15:14;101060.77;;;12.61;100.00
60817;BME280;51921;51.518;-3.188;2023-07-13T03:17:39;101064.49;;;12.98;100.00
60817;BME280;51921;51.518;-3.188;2023-07-13T03:20:06;101066.60;;;13.44;100.00
60817;BME280;51921;51.518;-3.188;2023-07-13T03:22:30;101067.54;;;13.07;100.00
60817;BME280;51921;51.518;-3.188;2023-07-13T03:24:56;101067.57;;;13.82;100.00
60817;BME280;51921;51.518;-3.188;2023-07-13T03:27:21;101069.16;;;12.90;100.00
60817;BME280;51921;51.518;-3.188;2023-07-13T03:29:46;101070.55;;;13.81;100.00
60817;BME280;51921;51.518;-3.188;2023-07-13T03:32:11;101072.34;;;14.05;100.00
60817;BME280;51921;51.518;-3.188;2023-07-13T03:34:37;101072.21;;;13.43;100.00
60817;BME280;51921;51.518;-3.188;2023-07-13T03:37:02;101071.24;;;14.73;100.00
60817;BME280;51921;51.518;-3.188;2023-07-13T03:39:28;101069.14;;;13.58;100.00
60817;BME280;51921;51.518;-3.188;2023-07-13T03:41:53;101067.17;;;13.85;100.00
60817;BME280;51921;51.518;-3.188;2023-07-13T03:44:18;101071.33;;;14.34;100.00
60817;BME280;51921;51.518;-3.188;2023-07-13T03:46:44;101073.86;;;14.31;100.00
60817;BME280;51921;51.518;-3.188;2023-07-13T03:49:09;101077.62;;;14.69;100.00
60817;BME280;51921;51.518;-3.188;2023-07-13T03:51:35;101076.88;;;15.16;100.00
60817;BME280;51921;51.518;-3.188;2023-07-13T03:54:00;101080.61;;;14.13;100.00
60817;BME280;51921;51.518;-3.188;2023-07-13T03:56:25;101083.01;;;14.08;100.00
60817;BME280;51921;51.518;-3.188;2023-07-13T03:58:51;101086.63;;;14.38;100.00
60817;BME280;51921;51.518;-3.188;2023-07-13T04:01:18;101088.36;;;14.96;100.00
60817;BME280;51921;51.518;-3.188;2023-07-13T04:03:42;101090.62;;;13.67;100.00
60817;BME280;51921;51.518;-3.188;2023-07-13T04:06:16;101090.29;;;14.09;100.00
60817;BME280;51921;51.518;-3.188;2023-07-13T04:08:35;101095.44;;;13.48;100.00
60817;BME280;51921;51.518;-3.188;2023-07-13T04:10:58;101098.78;;;14.76;100.00
60817;BME280;51921;51.518;-3.188;2023-07-13T04:13:25;101099.26;;;14.38;100.00
60817;BME280;51921;51.518;-3.188;2023-07-13T04:15:49;101098.71;;;14.80;100.00
60817;BME280;51921;51.518;-3.188;2023-07-13T04:18:14;101098.61;;;15.43;100.00
60817;BME280;51921;51.518;-3.188;2023-07-13T04:20:40;101101.98;;;14.85;100.00
60817;BME280;51921;51.518;-3.188;2023-07-13T04:23:05;101108.22;;;16.10;100.00
60817;BME280;51921;51.518;-3.188;2023-07-13T04:25:30;101110.45;;;15.58;100.00
60817;BME280;51921;51.518;-3.188;2023-07-13T04:27:56;101105.32;;;17.11;100.00
60817;BME280;51921;51.518;-3.188;2023-07-13T04:30:22;101114.07;;;15.73;100.00
60817;BME280;51921;51.518;-3.188;2023-07-13T04:32:47;101108.53;;;15.26;100.00
60817;BME280;51921;51.518;-3.188;2023-07-13T04:35:12;101113.14;;;15.65;100.00
60817;BME280;51921;51.518;-3.188;2023-07-13T04:37:37;101110.71;;;16.00;100.00
60817;BME280;51921;51.518;-3.188;2023-07-13T04:40:03;101109.18;;;16.52;100.00
60817;BME280;51921;51.518;-3.188;2023-07-13T04:42:28;101112.97;;;16.46;100.00
60817;BME280;51921;51.518;-3.188;2023-07-13T04:44:53;101114.95;;;15.86;100.00
60817;BME280;51921;51.518;-3.188;2023-07-13T04:47:18;101110.91;;;16.60;99.77
60817;BME280;51921;51.518;-3.188;2023-07-13T04:49:44;101110.67;;;17.93;92.23
60817;BME280;51921;51.518;-3.188;2023-07-13T04:52:09;101110.00;;;17.86;93.58
60817;BME280;51921;51.518;-3.188;2023-07-13T04:54:34;101116.24;;;17.21;96.93
60817;BME280;51921;51.518;-3.188;2023-07-13T04:57:00;101112.83;;;17.45;95.29
60817;BME280;51921;51.518;-3.188;2023-07-13T04:59:25;101111.59;;;16.75;97.81
60817;BME280;51921;51.518;-3.188;2023-07-13T05:01:50;101108.59;;;16.71;98.92
60817;BME280;51921;51.518;-3.188;2023-07-13T05:04:15;101117.23;;;15.62;100.00
60817;BME280;51921;51.518;-3.188;2023-07-13T05:06:41;101116.37;;;16.23;100.00
60817;BME280;51921;51.518;-3.188;2023-07-13T05:09:06;101118.61;;;15.35;100.00
60817;BME280;51921;51.518;-3.188;2023-07-13T05:11:32;101119.21;;;16.18;100.00
60817;BME280;51921;51.518;-3.188;2023-07-13T05:13:57;101121.89;;;15.63;100.00
60817;BME280;51921;51.518;-3.188;2023-07-13T05:16:22;101115.32;;;15.35;100.00
60817;BME280;51921;51.518;-3.188;2023-07-13T05:18:48;101114.93;;;16.70;100.00
60817;BME280;51921;51.518;-3.188;2023-07-13T05:21:13;101118.56;;;16.91;99.31
60817;BME280;51921;51.518;-3.188;2023-07-13T05:23:39;101123.11;;;16.27;100.00
60817;BME280;51921;51.518;-3.188;2023-07-13T05:26:04;101127.02;;;16.08;100.00
60817;BME280;51921;51.518;-3.188;2023-07-13T05:28:30;101125.34;;;16.42;100.00
60817;BME280;51921;51.518;-3.188;2023-07-13T05:30:55;101128.30;;;15.92;100.00
60817;BME280;51921;51.518;-3.188;2023-07-13T05:33:20;101133.34;;;16.29;100.00
60817;BME280;51921;51.518;-3.188;2023-07-13T05:35:45;101134.52;;;15.90;100.00
60817;BME280;51921;51.518;-3.188;2023-07-13T05:38:11;101137.52;;;15.91;100.00
60817;BME280;51921;51.518;-3.188;2023-07-13T05:40:36;101140.80;;;15.51;100.00
60817;BME280;51921;51.518;-3.188;2023-07-13T05:43:02;101143.66;;;15.69;100.00
60817;BME280;51921;51.518;-3.188;2023-07-13T05:45:27;101151.36;;;15.83;100.00
60817;BME280;51921;51.518;-3.188;2023-07-13T05:47:52;101154.63;;;16.16;100.00
60817;BME280;51921;51.518;-3.188;2023-07-13T05:50:18;101153.47;;;16.61;100.00
60817;BME280;51921;51.518;-3.188;2023-07-13T05:52:43;101154.85;;;16.50;100.00
60817;BME280;51921;51.518;-3.188;2023-07-13T05:55:09;101158.18;;;15.85;100.00
60817;BME280;51921;51.518;-3.188;2023-07-13T05:57:34;101154.28;;;15.53;100.00
60817;BME280;51921;51.518;-3.188;2023-07-13T05:59:59;101164.05;;;15.97;100.00
60817;BME280;51921;51.518;-3.188;2023-07-13T06:02:24;101160.77;;;15.35;100.00
60817;BME280;51921;51.518;-3.188;2023-07-13T06:04:50;101166.76;;;15.90;100.00
60817;BME280;51921;51.518;-3.188;2023-07-13T06:07:15;101168.07;;;16.06;100.00
60817;BME280;51921;51.518;-3.188;2023-07-13T06:09:41;101167.68;;;16.59;100.00
60817;BME280;51921;51.518;-3.188;2023-07-13T06:12:07;101169.37;;;16.86;100.00
60817;BME280;51921;51.518;-3.188;2023-07-13T06:14:31;101171.67;;;15.91;100.00
60817;BME280;51921;51.518;-3.188;2023-07-13T06:16:57;101172.74;;;16.55;100.00
60817;BME280;51921;51.518;-3.188;2023-07-13T06:19:22;101175.63;;;15.72;100.00
60817;BME280;51921;51.518;-3.188;2023-07-13T06:21:47;101178.19;;;15.36;100.00
60817;BME280;51921;51.518;-3.188;2023-07-13T06:24:13;101179.19;;;16.78;100.00
60817;BME280;51921;51.518;-3.188;2023-07-13T06:26:38;101178.82;;;16.15;100.00
60817;BME280;51921;51.518;-3.188;2023-07-13T06:29:04;101180.47;;;16.49;100.00
60817;BME280;51921;51.518;-3.188;2023-07-13T06:31:29;101180.77;;;15.43;100.00
60817;BME280;51921;51.518;-3.188;2023-07-13T06:33:54;101186.03;;;14.18;100.00
60817;BME280;51921;51.518;-3.188;2023-07-13T06:36:20;101184.30;;;15.87;100.00
60817;BME280;51921;51.518;-3.188;2023-07-13T06:38:45;101181.87;;;15.26;100.00
60817;BME280;51921;51.518;-3.188;2023-07-13T06:41:11;101184.17;;;15.52;100.00
60817;BME280;51921;51.518;-3.188;2023-07-13T06:43:36;101183.39;;;15.76;100.00
60817;BME280;51921;51.518;-3.188;2023-07-13T06:46:01;101186.57;;;15.35;100.00
60817;BME280;51921;51.518;-3.188;2023-07-13T06:48:27;101189.36;;;16.42;100.00
60817;BME280;51921;51.518;-3.188;2023-07-13T06:50:52;101190.41;;;15.96;100.00
60817;BME280;51921;51.518;-3.188;2023-07-13T06:53:18;101193.13;;;15.00;100.00
60817;BME280;51921;51.518;-3.188;2023-07-13T06:55:44;101194.52;;;15.52;100.00
60817;BME280;51921;51.518;-3.188;2023-07-13T06:58:08;101197.93;;;16.21;100.00
60817;BME280;51921;51.518;-3.188;2023-07-13T07:00:34;101194.06;;;15.67;100.00
60817;BME280;51921;51.518;-3.188;2023-07-13T07:02:59;101193.95;;;15.10;100.00
60817;BME280;51921;51.518;-3.188;2023-07-13T07:05:24;101198.78;;;16.04;100.00
60817;BME280;51921;51.518;-3.188;2023-07-13T07:07:50;101194.84;;;15.47;100.00
60817;BME280;51921;51.518;-3.188;2023-07-13T07:10:15;101192.32;;;15.05;100.00
60817;BME280;51921;51.518;-3.188;2023-07-13T07:12:40;101193.30;;;15.53;100.00
60817;BME280;51921;51.518;-3.188;2023-07-13T07:15:06;101203.11;;;15.27;100.00
60817;BME280;51921;51.518;-3.188;2023-07-13T07:17:31;101203.76;;;15.35;100.00
60817;BME280;51921;51.518;-3.188;2023-07-13T07:19:57;101205.50;;;14.69;100.00
60817;BME280;51921;51.518;-3.188;2023-07-13T07:22:22;101209.22;;;16.05;100.00
60817;BME280;51921;51.518;-3.188;2023-07-13T07:24:47;101212.19;;;17.15;100.00
60817;BME280;51921;51.518;-3.188;2023-07-13T07:27:13;101212.53;;;16.99;98.84
60817;BME280;51921;51.518;-3.188;2023-07-13T07:29:38;101214.20;;;16.33;100.00
60817;BME280;51921;51.518;-3.188;2023-07-13T07:32:04;101214.63;;;16.29;97.37
60817;BME280;51921;51.518;-3.188;2023-07-13T07:34:29;101213.89;;;17.63;93.06
60817;BME280;51921;51.518;-3.188;2023-07-13T07:36:54;101208.90;;;16.74;97.77
60817;BME280;51921;51.518;-3.188;2023-07-13T07:39:19;101205.48;;;16.03;100.00
60817;BME280;51921;51.518;-3.188;2023-07-13T07:41:45;101206.10;;;15.45;100.00
60817;BME280;51921;51.518;-3.188;2023-07-13T07:44:10;101215.18;;;15.84;100.00
60817;BME280;51921;51.518;-3.188;2023-07-13T07:46:35;101215.92;;;15.63;100.00
60817;BME280;51921;51.518;-3.188;2023-07-13T07:49:00;101215.72;;;15.88;100.00
60817;BME280;51921;51.518;-3.188;2023-07-13T07:51:26;101216.03;;;16.38;100.00
60817;BME280;51921;51.518;-3.188;2023-07-13T07:53:51;101221.38;;;16.39;100.00
60817;BME280;51921;51.518;-3.188;2023-07-13T07:56:17;101221.37;;;16.81;100.00
60817;BME280;51921;51.518;-3.188;2023-07-13T07:58:42;101221.06;;;15.36;100.00
60817;BME280;51921;51.518;-3.188;2023-07-13T08:01:08;101226.23;;;15.99;100.00
60817;BME280;51921;51.518;-3.188;2023-07-13T08:03:33;101225.88;;;15.85;100.00
60817;BME280;51921;51.518;-3.188;2023-07-13T08:05:58;101228.25;;;17.20;97.82
60817;BME280;51921;51.518;-3.188;2023-07-13T08:08:23;101229.36;;;16.99;98.26
60817;BME280;51921;51.518;-3.188;2023-07-13T08:10:49;101227.96;;;16.48;100.00
60817;BME280;51921;51.518;-3.188;2023-07-13T08:13:14;101229.03;;;17.16;99.30
60817;BME280;51921;51.518;-3.188;2023-07-13T08:15:39;101226.41;;;16.31;100.00
60817;BME280;51921;51.518;-3.188;2023-07-13T08:18:04;101227.56;;;16.48;100.00
60817;BME280;51921;51.518;-3.188;2023-07-13T08:20:30;101226.92;;;16.48;100.00
60817;BME280;51921;51.518;-3.188;2023-07-13T08:22:55;101227.70;;;16.78;100.00
60817;BME280;51921;51.518;-3.188;2023-07-13T08:25:21;101227.11;;;17.79;95.96
60817;BME280;51921;51.518;-3.188;2023-07-13T08:27:46;101220.02;;;17.96;94.66
60817;BME280;51921;51.518;-3.188;2023-07-13T08:30:11;101224.60;;;19.03;87.92
60817;BME280;51921;51.518;-3.188;2023-07-13T08:32:37;101220.56;;;18.89;84.38
60817;BME280;51921;51.518;-3.188;2023-07-13T08:35:02;101221.60;;;18.05;89.23
60817;BME280;51921;51.518;-3.188;2023-07-13T08:37:27;101223.62;;;17.07;92.65
60817;BME280;51921;51.518;-3.188;2023-07-13T08:39:53;101224.33;;;17.15;94.78
60817;BME280;51921;51.518;-3.188;2023-07-13T08:42:29;101226.24;;;16.35;100.00
60817;BME280;51921;51.518;-3.188;2023-07-13T08:44:51;101226.02;;;15.79;100.00
60817;BME280;51921;51.518;-3.188;2023-07-13T08:47:10;101226.64;;;17.11;99.29
60817;BME280;51921;51.518;-3.188;2023-07-13T08:49:34;101225.71;;;17.70;96.22
60817;BME280;51921;51.518;-3.188;2023-07-13T08:52:02;101222.51;;;17.47;96.01
60817;BME280;51921;51.518;-3.188;2023-07-13T08:54:36;101224.20;;;17.23;95.08
60817;BME280;51921;51.518;-3.188;2023-07-13T08:56:52;101221.27;;;18.38;91.24
60817;BME280;51921;51.518;-3.188;2023-07-13T08:59:17;101223.33;;;18.85;85.19
60817;BME280;51921;51.518;-3.188;2023-07-13T09:01:58;101228.22;;;19.08;84.20
60817;BME280;51921;51.518;-3.188;2023-07-13T09:04:11;101225.29;;;18.95;78.63
60817;BME280;51921;51.518;-3.188;2023-07-13T09:06:37;101224.49;;;19.85;77.75
60817;BME280;51921;51.518;-3.188;2023-07-13T09:09:00;101226.40;;;19.05;78.85
60817;BME280;51921;51.518;-3.188;2023-07-13T09:11:33;101224.67;;;19.42;79.20
60817;BME280;51921;51.518;-3.188;2023-07-13T09:13:54;101222.60;;;18.59;77.76
60817;BME280;51921;51.518;-3.188;2023-07-13T09:16:13;101220.19;;;18.79;80.04
60817;BME280;51921;51.518;-3.188;2023-07-13T09:18:42;101218.09;;;18.67;79.60
60817;BME280;51921;51.518;-3.188;2023-07-13T09:21:07;101219.45;;;18.47;81.90
60817;BME280;51921;51.518;-3.188;2023-07-13T09:23:30;101222.14;;;19.49;76.44
60817;BME280;51921;51.518;-3.188;2023-07-13T09:26:00;101222.09;;;19.11;77.44
60817;BME280;51921;51.518;-3.188;2023-07-13T09:28:22;101225.29;;;19.37;74.13
60817;BME280;51921;51.518;-3.188;2023-07-13T09:30:49;101236.53;;;18.86;72.54
60817;BME280;51921;51.518;-3.188;2023-07-13T09:33:10;101234.48;;;18.92;73.62
60817;BME280;51921;51.518;-3.188;2023-07-13T09:35:35;101238.44;;;20.59;68.14
60817;BME280;51921;51.518;-3.188;2023-07-13T09:38:10;101236.11;;;19.36;71.17
60817;BME280;51921;51.518;-3.188;2023-07-13T09:40:36;101234.62;;;19.34;67.15
60817;BME280;51921;51.518;-3.188;2023-07-13T09:42:52;101239.77;;;19.46;69.08
60817;BME280;51921;51.518;-3.188;2023-07-13T09:45:26;101238.75;;;20.66;64.67
60817;BME280;51921;51.518;-3.188;2023-07-13T09:47:41;101238.77;;;19.78;67.19
60817;BME280;51921;51.518;-3.188;2023-07-13T09:50:10;101237.85;;;19.61;70.00
60817;BME280;51921;51.518;-3.188;2023-07-13T09:52:40;101237.49;;;19.31;69.99
60817;BME280;51921;51.518;-3.188;2023-07-13T09:54:57;101240.24;;;18.27;73.29
60817;BME280;51921;51.518;-3.188;2023-07-13T09:57:23;101242.28;;;19.42;74.65
60817;BME280;51921;51.518;-3.188;2023-07-13T09:59:51;101245.51;;;18.66;73.76
60817;BME280;51921;51.518;-3.188;2023-07-13T10:02:23;101250.61;;;17.83;76.41
60817;BME280;51921;51.518;-3.188;2023-07-13T10:04:38;101255.04;;;17.89;79.91
60817;BME280;51921;51.518;-3.188;2023-07-13T10:07:06;101250.72;;;18.19;76.33
60817;BME280;51921;51.518;-3.188;2023-07-13T10:09:29;101262.38;;;17.12;79.21
60817;BME280;51921;51.518;-3.188;2023-07-13T10:11:54;101272.37;;;17.31;80.94
60817;BME280;51921;51.518;-3.188;2023-07-13T10:14:21;101267.72;;;17.45;82.38
60817;BME280;51921;51.518;-3.188;2023-07-13T10:16:46;101271.44;;;16.82;83.13
60817;BME280;51921;51.518;-3.188;2023-07-13T10:19:14;101269.78;;;17.49;80.84
60817;BME280;51921;51.518;-3.188;2023-07-13T10:21:41;101265.23;;;17.31;79.19
60817;BME280;51921;51.518;-3.188;2023-07-13T10:24:09;101274.15;;;17.44;76.71
60817;BME280;51921;51.518;-3.188;2023-07-13T10:26:31;101279.92;;;17.96;75.79
60817;BME280;51921;51.518;-3.188;2023-07-13T10:28:55;101279.62;;;16.66;75.10
60817;BME280;51921;51.518;-3.188;2023-07-13T10:31:18;101277.08;;;17.19;75.13
60817;BME280;51921;51.518;-3.188;2023-07-13T10:33:43;101274.28;;;18.19;71.02
60817;BME280;51921;51.518;-3.188;2023-07-13T10:36:15;101276.50;;;18.14;69.58
60817;BME280;51921;51.518;-3.188;2023-07-13T10:38:33;101279.88;;;18.00;74.02
60817;BME280;51921;51.518;-3.188;2023-07-13T10:41:03;101270.20;;;18.93;70.71
60817;BME280;51921;51.518;-3.188;2023-07-13T10:43:26;101264.80;;;19.24;68.83
60817;BME280;51921;51.518;-3.188;2023-07-13T10:45:49;101276.33;;;18.97;70.89
60817;BME280;51921;51.518;-3.188;2023-07-13T10:48:15;101273.51;;;19.69;69.02
60817;BME280;51921;51.518;-3.188;2023-07-13T10:50:42;101272.81;;;19.00;66.82
60817;BME280;51921;51.518;-3.188;2023-07-13T10:55:36;101276.99;;;18.94;71.00
60817;BME280;51921;51.518;-3.188;2023-07-13T10:58:00;101274.14;;;18.98;70.18
60817;BME280;51921;51.518;-3.188;2023-07-13T11:00:21;101272.16;;;18.89;70.42
60817;BME280;51921;51.518;-3.188;2023-07-13T11:02:56;101276.32;;;18.59;70.70
60817;BME280;51921;51.518;-3.188;2023-07-13T11:05:25;101278.05;;;18.45;69.82
60817;BME280;51921;51.518;-3.188;2023-07-13T11:10:05;101271.48;;;19.35;67.69
60817;BME280;51921;51.518;-3.188;2023-07-13T11:15:05;101270.17;;;18.56;66.32
60817;BME280;51921;51.518;-3.188;2023-07-13T11:17:34;101275.51;;;18.37;68.45
60817;BME280;51921;51.518;-3.188;2023-07-13T11:19:43;101275.57;;;18.63;68.08
60817;BME280;51921;51.518;-3.188;2023-07-13T11:22:13;101274.06;;;18.98;68.38
60817;BME280;51921;51.518;-3.188;2023-07-13T11:24:48;101273.25;;;18.80;68.46
60817;BME280;51921;51.518;-3.188;2023-07-13T11:26:59;101273.01;;;18.56;68.02
60817;BME280;51921;51.518;-3.188;2023-07-13T11:29:32;101268.87;;;19.34;64.79
60817;BME280;51921;51.518;-3.188;2023-07-13T11:31:53;101272.17;;;17.91;69.74
60817;BME280;51921;51.518;-3.188;2023-07-13T11:34:16;101283.09;;;19.55;67.55
60817;BME280;51921;51.518;-3.188;2023-07-13T11:36:44;101280.34;;;19.57;67.85
60817;BME280;51921;51.518;-3.188;2023-07-13T11:39:15;101277.26;;;18.68;72.01
60817;BME280;51921;51.518;-3.188;2023-07-13T11:41:35;101275.83;;;18.32;74.85
60817;BME280;51921;51.518;-3.188;2023-07-13T11:44:06;101272.44;;;18.38;73.22
60817;BME280;51921;51.518;-3.188;2023-07-13T11:46:24;101271.37;;;18.51;73.95
60817;BME280;51921;51.518;-3.188;2023-07-13T11:48:49;101274.00;;;19.58;71.79
60817;BME280;51921;51.518;-3.188;2023-07-13T11:51:19;101273.27;;;19.37;68.97
60817;BME280;51921;51.518;-3.188;2023-07-13T11:53:40;101275.66;;;19.14;71.39
60817;BME280;51921;51.518;-3.188;2023-07-13T11:56:04;101277.74;;;18.69;73.23
60817;BME280;51921;51.518;-3.188;2023-07-13T11:58:29;101273.68;;;18.43;71.31
60817;BME280;51921;51.518;-3.188;2023-07-13T12:00:57;101279.26;;;18.29;75.80
60817;BME280;51921;51.518;-3.188;2023-07-13T12:03:21;101282.14;;;17.74;78.00
60817;BME280;51921;51.518;-3.188;2023-07-13T12:05:55;101282.89;;;17.98;79.02
60817;BME280;51921;51.518;-3.188;2023-07-13T12:08:11;101273.69;;;18.90;72.42
60817;BME280;51921;51.518;-3.188;2023-07-13T12:10:36;101271.02;;;18.59;72.93
60817;BME280;51921;51.518;-3.188;2023-07-13T12:13:02;101280.97;;;19.25;71.38
60817;BME280;51921;51.518;-3.188;2023-07-13T12:15:32;101282.62;;;18.25;74.07
60817;BME280;51921;51.518;-3.188;2023-07-13T12:17:51;101280.30;;;17.52;76.41
60817;BME280;51921;51.518;-3.188;2023-07-13T12:20:21;101273.44;;;18.41;73.29
60817;BME280;51921;51.518;-3.188;2023-07-13T12:22:46;101278.04;;;18.14;71.68
60817;BME280;51921;51.518;-3.188;2023-07-13T12:25:11;101276.78;;;17.51;73.03
60817;BME280;51921;51.518;-3.188;2023-07-13T12:27:32;101276.39;;;17.79;76.57
60817;BME280;51921;51.518;-3.188;2023-07-13T12:30:01;101284.84;;;18.40;75.93